createdAt,value
2022-12-08T00:00:44.712Z,85.27
2022-12-08T00:03:13.677Z,85.05
2022-12-08T00:06:03.489Z,84.76
2022-12-08T00:08:49.994Z,84.60
2022-12-08T00:11:19.703Z,84.15
2022-12-08T00:13:48.507Z,84.57
2022-12-08T00:16:18.737Z,84.19
2022-12-08T00:18:47.692Z,83.89
2022-12-08T00:21:16.476Z,83.76
2022-12-08T00:23:45.475Z,84.66
2022-12-08T00:26:14.386Z,84.56
2022-12-08T00:28:43.800Z,83.95
2022-12-08T00:31:16.426Z,84.71
2022-12-08T00:33:46.899Z,84.06
2022-12-08T00:36:16.506Z,83.58
2022-12-08T00:38:47.345Z,83.54
2022-12-08T00:41:17.750Z,84.21
2022-12-08T00:43:47.322Z,83.54
2022-12-08T00:46:16.107Z,84.24
2022-12-08T00:48:46.796Z,83.22
2022-12-08T00:51:15.595Z,83.15
2022-12-08T00:53:44.484Z,83.95
2022-12-08T00:56:13.476Z,84.34
2022-12-08T00:58:42.350Z,83.50
2022-12-08T01:01:12.098Z,84.47
2022-12-08T01:03:41.643Z,83.62
2022-12-08T01:06:12.731Z,83.68
2022-12-08T01:08:42.135Z,84.46
2022-12-08T01:11:15.072Z,84.30
2022-12-08T01:13:44.117Z,83.95
2022-12-08T01:16:42.963Z,83.97
2022-12-08T01:19:13.044Z,84.23
2022-12-08T01:21:44.481Z,83.74
2022-12-08T01:24:14.296Z,83.69
2022-12-08T01:26:43.700Z,84.29
2022-12-08T01:29:12.590Z,84.57
2022-12-08T01:31:41.693Z,84.93
2022-12-08T01:34:11.909Z,84.71
2022-12-08T01:36:41.417Z,84.35
2022-12-08T01:39:15.747Z,85.33
2022-12-08T01:41:45.243Z,85.48
2022-12-08T01:44:51.090Z,84.39
2022-12-08T01:47:20.178Z,84.63
2022-12-08T01:49:49.705Z,84.15
2022-12-08T01:52:23.873Z,84.33
2022-12-08T01:54:55.849Z,84.91
2022-12-08T01:57:26.926Z,84.58
2022-12-08T01:59:58.423Z,85.52
2022-12-08T02:02:31.617Z,84.59
2022-12-08T02:05:00.873Z,85.32
2022-12-08T02:07:29.678Z,84.25
2022-12-08T02:10:00.111Z,84.67
2022-12-08T02:12:29.389Z,84.64
2022-12-08T02:15:03.387Z,84.98
2022-12-08T02:17:47.750Z,84.60
2022-12-08T02:20:39.892Z,85.28
2022-12-08T02:23:14.827Z,85.27
2022-12-08T02:25:59.876Z,85.59
2022-12-08T02:28:43.852Z,84.85
2022-12-08T02:31:19.883Z,84.60
2022-12-08T02:34:09.994Z,84.85
2022-12-08T02:36:45.847Z,85.08
2022-12-08T02:39:23.409Z,85.32
2022-12-08T02:41:56.438Z,85.64
2022-12-08T02:44:31.063Z,85.34
2022-12-08T02:47:02.080Z,85.24
2022-12-08T02:49:33.041Z,84.95
2022-12-08T02:52:39.776Z,84.91
2022-12-08T02:55:12.277Z,86.11
2022-12-08T02:57:49.481Z,86.00
2022-12-08T03:00:19.396Z,86.01
2022-12-08T03:03:01.435Z,86.48
2022-12-08T03:05:42.480Z,86.18
2022-12-08T03:08:18.409Z,86.40
2022-12-08T03:10:53.720Z,86.38
2022-12-08T03:13:25.990Z,85.43
2022-12-08T03:15:56.541Z,86.67
2022-12-08T03:18:30.291Z,86.91
2022-12-08T03:21:00.912Z,87.10
2022-12-08T03:23:29.657Z,86.42
2022-12-08T03:26:01.391Z,86.69
2022-12-08T03:28:30.659Z,86.46
2022-12-08T03:31:01.646Z,86.79
2022-12-08T03:33:32.283Z,86.24
2022-12-08T03:36:03.898Z,86.38
2022-12-08T03:38:39.364Z,85.65
2022-12-08T03:41:23.285Z,85.99
2022-12-08T03:43:54.147Z,86.15
2022-12-08T03:48:55.689Z,86.84
2022-12-08T03:51:27.389Z,86.64
2022-12-08T03:53:56.799Z,86.31
2022-12-08T03:56:27.187Z,86.43
2022-12-08T03:58:56.171Z,86.25
2022-12-08T04:01:25.619Z,86.56
2022-12-08T04:03:54.876Z,86.72
2022-12-08T04:06:25.715Z,86.14
2022-12-08T04:08:54.709Z,86.23
2022-12-08T04:11:23.704Z,86.46
2022-12-08T04:13:53.105Z,86.75
2022-12-08T04:16:24.258Z,86.60
2022-12-08T04:18:53.734Z,86.72
2022-12-08T04:21:22.786Z,87.12
2022-12-08T04:23:59.162Z,87.07
2022-12-08T04:26:30.352Z,87.33
2022-12-08T04:28:58.955Z,87.51
2022-12-08T04:31:27.937Z,87.11
2022-12-08T04:33:57.040Z,86.21
2022-12-08T04:36:25.931Z,87.58
2022-12-08T04:38:56.063Z,86.99
2022-12-08T04:41:24.942Z,87.44
2022-12-08T04:43:53.819Z,87.42
2022-12-08T04:46:22.654Z,86.86
2022-12-08T04:48:51.185Z,86.87
2022-12-08T04:51:21.074Z,86.25
2022-12-08T04:53:50.322Z,86.63
2022-12-08T04:56:20.961Z,86.67
2022-12-08T04:58:49.746Z,86.69
2022-12-08T05:01:18.400Z,87.40
2022-12-08T05:03:47.069Z,87.53
2022-12-08T05:06:15.806Z,87.77
2022-12-08T05:08:45.079Z,87.39
2022-12-08T05:11:15.211Z,87.25
2022-12-08T05:13:45.715Z,87.88
2022-12-08T05:16:16.397Z,87.53
2022-12-08T05:18:45.290Z,86.75
2022-12-08T05:21:14.382Z,87.43
2022-12-08T05:23:43.581Z,87.05
2022-12-08T05:26:12.674Z,87.49
2022-12-08T05:28:43.320Z,87.47
2022-12-08T05:31:15.618Z,87.40
2022-12-08T05:33:45.190Z,87.48
2022-12-08T05:36:16.435Z,86.78
2022-12-08T05:38:45.580Z,87.24
2022-12-08T05:41:18.977Z,87.36
2022-12-08T05:43:49.049Z,87.18
2022-12-08T05:46:19.586Z,86.60
2022-12-08T05:48:48.525Z,87.28
2022-12-08T05:51:19.884Z,86.71
2022-12-08T05:53:50.144Z,87.09
2022-12-08T05:56:19.447Z,86.47
2022-12-08T05:58:51.526Z,87.34
2022-12-08T06:01:23.578Z,87.78
2022-12-08T06:03:52.803Z,87.93
2022-12-08T06:06:22.504Z,87.48
2022-12-08T06:08:52.069Z,87.74
2022-12-08T06:11:24.779Z,87.67
2022-12-08T06:13:54.801Z,87.20
2022-12-08T06:16:26.380Z,87.58
2022-12-08T06:18:55.550Z,87.85
2022-12-08T06:21:25.466Z,87.06
2022-12-08T06:23:55.460Z,87.52
2022-12-08T06:26:24.458Z,87.29
2022-12-08T06:28:54.044Z,86.98
2022-12-08T06:31:26.327Z,87.52
2022-12-08T06:33:56.788Z,87.19
2022-12-08T06:36:28.033Z,87.57
2022-12-08T06:38:57.026Z,87.76
2022-12-08T06:41:25.994Z,87.46
2022-12-08T06:43:59.880Z,87.22
2022-12-08T06:46:30.447Z,87.47
2022-12-08T06:48:59.951Z,87.41
2022-12-08T06:51:29.104Z,87.97
2022-12-08T06:53:58.550Z,87.40
2022-12-08T06:56:28.165Z,87.55
2022-12-08T06:59:22.260Z,88.16
2022-12-08T07:01:52.513Z,87.33
2022-12-08T07:04:21.668Z,88.08
2022-12-08T07:06:51.391Z,87.62
2022-12-08T07:09:20.386Z,87.94
2022-12-08T07:11:49.541Z,88.26
2022-12-08T07:14:20.531Z,88.78
2022-12-08T07:16:49.380Z,88.27
2022-12-08T07:19:20.356Z,88.33
2022-12-08T07:21:49.741Z,87.47
2022-12-08T07:24:19.067Z,88.07
2022-12-08T07:26:48.268Z,87.65
2022-12-08T07:29:20.483Z,87.58
2022-12-08T07:31:53.520Z,87.70
2022-12-08T07:34:23.790Z,87.44
2022-12-08T07:36:53.049Z,87.91
2022-12-08T07:39:21.938Z,88.01
2022-12-08T07:41:51.034Z,87.97
2022-12-08T07:44:20.129Z,88.36
2022-12-08T07:46:48.926Z,88.52
2022-12-08T07:49:18.116Z,87.92
2022-12-08T07:51:48.528Z,88.37
2022-12-08T07:54:17.643Z,87.58
2022-12-08T07:56:46.722Z,87.71
2022-12-08T07:59:15.522Z,87.79
2022-12-08T08:01:45.757Z,87.86
2022-12-08T08:04:14.870Z,88.98
2022-12-08T08:06:48.144Z,89.14
2022-12-08T08:09:17.649Z,88.31
2022-12-08T08:12:07.172Z,88.64
2022-12-08T08:14:38.958Z,89.18
2022-12-08T08:17:08.134Z,88.95
2022-12-08T08:19:37.488Z,89.21
2022-12-08T08:22:08.224Z,89.12
2022-12-08T08:24:40.331Z,89.35
2022-12-08T08:27:14.100Z,89.57
2022-12-08T08:29:43.230Z,89.09
2022-12-08T08:32:11.982Z,88.92
2022-12-08T08:34:41.286Z,89.18
2022-12-08T08:37:12.062Z,89.31
2022-12-08T08:39:41.209Z,89.80
2022-12-08T08:42:10.264Z,89.38
2022-12-08T08:44:39.568Z,89.76
2022-12-08T08:47:08.823Z,89.21
2022-12-08T08:49:37.898Z,88.94
2022-12-08T08:52:07.443Z,89.16
2022-12-08T08:54:37.533Z,89.54
2022-12-08T08:57:06.514Z,88.89
2022-12-08T08:59:35.507Z,88.38
2022-12-08T09:02:04.275Z,88.75
2022-12-08T09:04:33.110Z,88.21
2022-12-08T09:07:02.280Z,88.93
2022-12-08T09:09:31.502Z,88.49
2022-12-08T09:12:01.984Z,88.36
2022-12-08T09:14:31.080Z,88.03
2022-12-08T09:16:59.993Z,88.02
2022-12-08T09:19:28.706Z,87.47
2022-12-08T09:21:57.370Z,88.35
2022-12-08T09:24:25.835Z,88.34
2022-12-08T09:26:54.872Z,89.05
2022-12-08T09:29:27.705Z,88.02
2022-12-08T09:31:58.521Z,88.74
2022-12-08T09:34:27.216Z,88.56
2022-12-08T09:36:56.326Z,86.96
2022-12-08T09:39:25.108Z,86.69
2022-12-08T09:41:57.657Z,87.52
2022-12-08T09:44:54.841Z,86.65
2022-12-08T09:47:30.640Z,86.74
2022-12-08T09:50:07.973Z,85.45
2022-12-08T09:52:40.722Z,85.61
2022-12-08T09:55:17.089Z,85.60
2022-12-08T09:57:48.477Z,86.18
2022-12-08T10:00:21.013Z,85.60
2022-12-08T10:02:49.664Z,86.29
2022-12-08T10:05:18.865Z,85.07
2022-12-08T10:07:49.982Z,85.86
2022-12-08T10:10:29.281Z,86.16
2022-12-08T10:13:03.452Z,85.68
2022-12-08T10:15:41.782Z,85.55
2022-12-08T10:18:17.256Z,85.96
2022-12-08T10:20:50.650Z,86.04
2022-12-08T10:23:32.755Z,85.86
2022-12-08T10:26:05.034Z,84.39
2022-12-08T10:28:38.770Z,84.99
2022-12-08T10:31:18.510Z,84.76
2022-12-08T10:33:48.547Z,83.80
2022-12-08T10:36:17.449Z,84.16
2022-12-08T10:38:46.367Z,84.25
2022-12-08T10:41:18.368Z,84.30
2022-12-08T10:43:50.335Z,84.37
2022-12-08T10:46:22.845Z,83.58
2022-12-08T10:48:54.135Z,83.79
2022-12-08T10:51:29.988Z,82.33
2022-12-08T10:53:59.492Z,83.39
2022-12-08T10:56:29.942Z,83.39
2022-12-08T10:59:16.195Z,83.09
2022-12-08T11:01:50.835Z,83.11
2022-12-08T11:04:21.103Z,82.53
2022-12-08T11:06:51.024Z,83.48
2022-12-08T11:09:38.924Z,83.34
2022-12-08T11:12:15.075Z,83.70
2022-12-08T11:14:52.051Z,83.86
2022-12-08T11:17:28.585Z,83.64
2022-12-08T11:19:59.795Z,83.74
2022-12-08T11:22:32.356Z,82.98
2022-12-08T11:25:03.108Z,82.67
2022-12-08T11:27:34.636Z,81.75
2022-12-08T11:30:04.604Z,82.56
2022-12-08T11:32:36.496Z,81.93
2022-12-08T11:35:07.260Z,82.95
2022-12-08T11:37:39.538Z,82.87
2022-12-08T11:40:18.363Z,82.33
2022-12-08T11:42:55.108Z,81.61
2022-12-08T11:45:27.414Z,81.67
2022-12-08T11:48:05.089Z,80.73
2022-12-08T11:50:42.156Z,80.85
2022-12-08T11:53:19.345Z,81.71
2022-12-08T11:55:52.534Z,81.43
2022-12-08T11:58:24.323Z,80.32
2022-12-08T12:00:52.941Z,80.11
2022-12-08T12:03:30.004Z,79.58
2022-12-08T12:06:38.107Z,80.31
2022-12-08T12:09:13.593Z,80.30
2022-12-08T12:12:06.725Z,80.73
2022-12-08T12:15:01.005Z,78.47
2022-12-08T12:17:38.346Z,80.36
2022-12-08T12:20:14.197Z,80.01
2022-12-08T12:22:43.904Z,80.01
2022-12-08T12:25:18.822Z,78.49
2022-12-08T12:27:49.569Z,77.54
2022-12-08T12:30:23.268Z,78.63
2022-12-08T12:32:55.196Z,78.64
2022-12-08T12:35:32.287Z,77.78
2022-12-08T12:38:25.863Z,78.98
2022-12-08T12:41:00.156Z,79.62
2022-12-08T12:43:33.692Z,79.14
2022-12-08T12:46:40.731Z,79.39
2022-12-08T12:49:48.801Z,79.41
2022-12-08T12:52:43.959Z,79.07
2022-12-08T12:55:26.695Z,79.06
2022-12-08T12:57:56.715Z,79.09
2022-12-08T13:00:26.954Z,78.72
2022-12-08T13:02:57.650Z,78.30
2022-12-08T13:05:28.080Z,78.16
2022-12-08T13:07:59.820Z,78.13
2022-12-08T13:10:31.765Z,76.70
2022-12-08T13:13:08.908Z,76.76
2022-12-08T13:15:39.537Z,77.67
2022-12-08T13:18:09.453Z,76.80
2022-12-08T13:20:43.472Z,78.27
2022-12-08T13:23:29.162Z,78.33
2022-12-08T13:26:17.700Z,78.21
2022-12-08T13:29:07.306Z,78.11
2022-12-08T13:31:46.613Z,76.95
2022-12-08T13:34:22.361Z,77.46
2022-12-08T13:37:03.958Z,78.02
2022-12-08T13:39:41.935Z,76.97
2022-12-08T13:42:17.723Z,76.39
2022-12-08T13:45:19.702Z,75.67
2022-12-08T13:48:06.022Z,75.68
2022-12-08T13:59:12.080Z,75.38
2022-12-08T14:01:45.125Z,76.13
2022-12-08T14:07:06.945Z,75.61
2022-12-08T14:09:37.558Z,76.21
2022-12-08T14:12:10.022Z,76.25
2022-12-08T14:17:30.732Z,74.87
2022-12-08T14:20:01.096Z,75.46
2022-12-08T14:22:34.028Z,74.32
2022-12-08T14:25:02.741Z,74.07
2022-12-08T14:27:36.412Z,74.47
2022-12-08T14:30:08.542Z,75.27
2022-12-08T14:32:40.594Z,74.63
2022-12-08T14:35:27.420Z,74.85
2022-12-08T14:37:58.795Z,74.99
2022-12-08T14:40:32.888Z,74.99
2022-12-08T14:43:18.941Z,75.12
2022-12-08T14:45:50.920Z,74.42
2022-12-08T14:48:21.120Z,73.51
2022-12-08T14:51:01.942Z,74.91
2022-12-08T14:53:37.937Z,74.11
2022-12-08T14:56:16.846Z,74.58
2022-12-08T14:58:47.465Z,75.75
2022-12-08T15:01:18.208Z,75.68
2022-12-08T15:03:50.902Z,74.29
2022-12-08T15:06:22.030Z,74.89
2022-12-08T15:08:58.634Z,75.33
2022-12-08T15:11:35.549Z,76.95
2022-12-08T15:14:05.994Z,77.56
2022-12-08T15:16:40.821Z,77.33
2022-12-08T15:19:24.462Z,77.31
2022-12-08T15:21:53.458Z,78.53
2022-12-08T15:24:23.662Z,78.41
2022-12-08T15:26:53.079Z,78.66
2022-12-08T15:29:24.878Z,79.09
2022-12-08T15:31:55.636Z,79.01
2022-12-08T15:34:25.040Z,78.19
2022-12-08T15:36:55.218Z,78.12
2022-12-08T15:39:33.104Z,78.14
2022-12-08T15:42:02.534Z,78.44
2022-12-08T15:44:33.031Z,79.52
2022-12-08T15:47:01.803Z,79.02
2022-12-08T15:49:30.825Z,79.86
2022-12-08T15:52:11.107Z,78.83
2022-12-08T15:54:40.460Z,79.18
2022-12-08T15:57:25.028Z,78.96
2022-12-08T16:00:19.207Z,79.38
2022-12-08T16:06:10.212Z,78.35
2022-12-08T16:08:49.380Z,78.77
2022-12-08T16:12:05.417Z,79.34
2022-12-08T16:17:30.570Z,79.53
2022-12-08T16:20:00.162Z,79.39
2022-12-08T16:25:22.039Z,79.77
2022-12-08T16:28:05.536Z,78.95
2022-12-08T16:30:37.824Z,80.08
2022-12-08T16:33:07.964Z,79.18
2022-12-08T16:35:36.690Z,79.74
2022-12-08T16:38:05.666Z,79.85
2022-12-08T16:40:54.635Z,78.97
2022-12-08T16:43:22.265Z,79.64
2022-12-08T16:45:51.173Z,79.44
2022-12-08T16:48:22.653Z,79.65
2022-12-08T16:50:51.447Z,80.09
2022-12-08T16:53:20.467Z,80.28
2022-12-08T16:55:50.131Z,79.35
2022-12-08T16:58:19.974Z,79.42
2022-12-08T17:00:49.419Z,79.51
2022-12-08T17:03:20.715Z,79.44
2022-12-08T17:05:49.871Z,80.09
2022-12-08T17:08:18.767Z,80.05
2022-12-08T17:11:07.659Z,79.71
2022-12-08T17:13:39.014Z,80.44
2022-12-08T17:16:19.443Z,81.08
2022-12-08T17:18:50.212Z,81.04
2022-12-08T17:21:22.179Z,81.84
2022-12-08T17:23:51.379Z,81.68
2022-12-08T17:26:20.271Z,81.41
2022-12-08T17:29:00.454Z,81.92
2022-12-08T17:32:06.672Z,81.90
2022-12-08T17:34:37.427Z,83.28
2022-12-08T17:37:06.628Z,83.79
2022-12-08T17:39:35.612Z,83.39
2022-12-08T17:42:04.933Z,84.17
2022-12-08T17:44:34.379Z,82.93
2022-12-08T17:47:04.707Z,83.82
2022-12-08T17:49:34.137Z,83.16
2022-12-08T17:52:07.456Z,84.14
2022-12-08T17:54:36.612Z,83.34
2022-12-08T17:57:12.199Z,82.62
2022-12-08T17:59:41.195Z,83.41
2022-12-08T18:02:11.873Z,83.00
2022-12-08T18:04:40.818Z,83.39
2022-12-08T18:07:11.333Z,83.56
2022-12-08T18:09:40.573Z,83.31
2022-12-08T18:12:09.850Z,83.68
2022-12-08T18:14:39.141Z,83.79
2022-12-08T18:17:07.937Z,84.31
2022-12-08T18:19:37.243Z,84.13
2022-12-08T18:22:06.107Z,83.94
2022-12-08T18:24:36.869Z,84.45
2022-12-08T18:27:05.862Z,84.88
2022-12-08T18:29:35.164Z,84.77
2022-12-08T18:32:04.082Z,84.58
2022-12-08T18:34:32.845Z,84.37
2022-12-08T18:37:01.636Z,85.32
2022-12-08T18:39:31.848Z,84.25
2022-12-08T18:42:22.694Z,84.61
2022-12-08T18:44:52.329Z,84.02
2022-12-08T18:47:21.472Z,84.35
2022-12-08T18:49:51.492Z,83.60
2022-12-08T18:52:28.183Z,83.62
2022-12-08T18:55:07.350Z,83.35
2022-12-08T18:57:38.472Z,84.35
2022-12-08T19:00:09.264Z,83.85
2022-12-08T19:02:41.502Z,83.71
2022-12-08T19:05:11.646Z,84.39
2022-12-08T19:07:42.644Z,85.15
2022-12-08T19:10:13.242Z,85.16
2022-12-08T19:12:43.614Z,84.71
2022-12-08T19:15:13.382Z,84.98
2022-12-08T19:17:42.377Z,84.92
2022-12-08T19:20:12.680Z,85.95
2022-12-08T19:22:41.796Z,85.61
2022-12-08T19:25:12.992Z,84.73
2022-12-08T19:27:46.955Z,85.45
2022-12-08T19:30:17.392Z,85.17
2022-12-08T19:33:02.059Z,85.60
2022-12-08T19:35:32.268Z,85.44
2022-12-08T19:38:01.241Z,85.42
2022-12-08T19:40:47.479Z,85.80
2022-12-08T19:43:47.992Z,85.58
2022-12-08T19:46:20.597Z,86.61
2022-12-08T19:48:49.883Z,86.51
2022-12-08T19:51:18.872Z,85.45
2022-12-08T19:53:48.133Z,85.34
2022-12-08T19:56:17.561Z,85.19
2022-12-08T19:58:47.959Z,85.76
2022-12-08T20:01:17.870Z,86.05
2022-12-08T20:03:46.922Z,85.64
2022-12-08T20:06:17.589Z,86.64
2022-12-08T20:08:50.627Z,85.78
2022-12-08T20:11:20.463Z,86.56
2022-12-08T20:13:51.263Z,86.14
2022-12-08T20:16:20.889Z,85.55
2022-12-08T20:18:49.799Z,85.15
2022-12-08T20:21:19.593Z,85.31
2022-12-08T20:23:50.044Z,85.94
2022-12-08T20:26:20.653Z,86.02
2022-12-08T20:28:53.297Z,86.00
2022-12-08T20:31:24.105Z,86.16
2022-12-08T20:33:54.119Z,85.15
2022-12-08T20:36:23.634Z,84.94
2022-12-08T20:38:53.929Z,85.38
2022-12-08T20:41:24.860Z,85.91
2022-12-08T20:43:55.292Z,86.06
2022-12-08T20:46:24.738Z,86.34
2022-12-08T20:48:53.989Z,85.79
2022-12-08T20:51:31.678Z,86.51
2022-12-08T20:54:04.736Z,85.82
2022-12-08T20:56:34.367Z,86.40
2022-12-08T20:59:07.322Z,85.80
2022-12-08T21:01:36.771Z,85.85
2022-12-08T21:04:06.249Z,85.92
2022-12-08T21:06:38.007Z,85.19
2022-12-08T21:09:07.323Z,85.40
2022-12-08T21:11:39.575Z,85.68
2022-12-08T21:14:10.234Z,85.72
2022-12-08T21:16:42.539Z,85.61
2022-12-08T21:19:11.722Z,85.91
2022-12-08T21:21:42.218Z,85.69
2022-12-08T21:24:11.510Z,85.70
2022-12-08T21:26:41.028Z,86.19
2022-12-08T21:29:13.106Z,85.53
2022-12-08T21:31:42.318Z,86.20
2022-12-08T21:34:12.129Z,85.69
2022-12-08T21:36:42.739Z,85.44
2022-12-08T21:39:13.363Z,85.53
2022-12-08T21:42:00.358Z,85.89
2022-12-08T21:44:30.744Z,87.30
2022-12-08T21:47:00.338Z,86.81
2022-12-08T21:49:29.797Z,87.00
2022-12-08T21:51:58.828Z,87.09
2022-12-08T21:54:30.597Z,87.04
2022-12-08T21:57:03.019Z,86.46
2022-12-08T21:59:33.753Z,86.40
2022-12-08T22:02:03.131Z,86.62
2022-12-08T22:04:32.211Z,87.06
2022-12-08T22:07:01.606Z,86.51
2022-12-08T22:09:31.133Z,87.04
2022-12-08T22:12:00.354Z,87.26
2022-12-08T22:14:29.799Z,87.68
2022-12-08T22:17:00.199Z,87.20
2022-12-08T22:19:29.353Z,86.66
2022-12-08T22:21:58.506Z,86.38
2022-12-08T22:24:27.852Z,86.76
2022-12-08T22:26:57.161Z,86.27
2022-12-08T22:29:26.665Z,86.21
2022-12-08T22:31:56.003Z,85.72
2022-12-08T22:34:26.759Z,86.17
2022-12-08T22:36:58.784Z,86.45
2022-12-08T22:39:28.128Z,86.88
2022-12-08T22:41:57.530Z,86.67
2022-12-08T22:44:26.731Z,86.86
2022-12-08T22:46:56.182Z,86.88
2022-12-08T22:49:27.092Z,86.63
2022-12-08T22:51:56.377Z,86.82
2022-12-08T22:54:25.830Z,86.52
2022-12-08T22:56:55.435Z,86.97
2022-12-08T22:59:27.193Z,86.53
2022-12-08T23:01:56.427Z,87.09
2022-12-08T23:04:52.381Z,87.31
2022-12-08T23:07:21.569Z,87.30
2022-12-08T23:09:50.846Z,87.42
2022-12-08T23:12:20.170Z,87.62
2022-12-08T23:14:49.116Z,87.36
2022-12-08T23:17:17.930Z,87.54
2022-12-08T23:19:50.048Z,87.68
2022-12-08T23:22:20.796Z,87.78
2022-12-08T23:24:49.731Z,87.73
2022-12-08T23:27:21.662Z,87.75
2022-12-08T23:29:50.449Z,87.70
2022-12-08T23:32:19.985Z,88.09
2022-12-08T23:34:49.470Z,87.83
2022-12-08T23:37:19.196Z,87.91
2022-12-08T23:39:49.910Z,87.99
2022-12-08T23:42:19.893Z,88.15
2022-12-08T23:44:48.957Z,88.40
2022-12-08T23:47:17.980Z,87.97
2022-12-08T23:49:47.191Z,88.42
2022-12-08T23:52:16.511Z,87.63
2022-12-08T23:54:46.117Z,88.21
2022-12-08T23:57:17.153Z,88.44
2022-12-08T23:59:46.402Z,88.64
